map of PNS home
PNS - Airport
Location
City:  Pensacola, Florida, United States
Name:Pensacola International Airport
ICAO:KPNS
IATA:PNS
FAA LID:PNS

Details
Type:Airport (Part 139 Class I)
Use:Public/Civil, International (customs landing rights)
Latitude:3028'24"N (30.473426)
Longitude:8711'12"W (-87.186611)
Datum:WGS 1984
Elevation:121 ft (37 m)
Variation:2.82W (WMM2015 magnetic declination)
-0.11 annual change
Runways:2
Longest:7004 × 150 ft (2135 × 45.5 m), paved

Time
Time Zone:UTC-6 (DST-5)
Local Time:

Weather
METAR:KPNS 130853Z AUTO 35007KT 10SM CLR 06/00 A3013 RMK AO2 SLP205 T00560000 53004
TAF:KPNS 130549Z 1306/1406 32007KT P6SM SKC
FM130900 35005KT P6SM SKC
FM132100 21013KT P6SM SKC

Related Locations
Nearby:
Farthest:USL: 11158 mi / 17957 km
Useless Loop, WA, AU

Find:

   beyond  
but within

Other Information
Maps:
Delays:
NOTAMs:
Links:
Sources:

  
flag of United States
flag of Florida
  

Airport Diagram

Airport diagram for PNS

Airport diagram PDF

Sectional Chart

Flight Planning
at skyvector.com

Satellite Image

Google Maps Satellite view

 

Copyright © 2004-2017 Karl L. Swartz. All rights reserved.
The Great Circle Mapper name and logo are trademarks of the Great Circle Mapper.
All other trademarks mentioned herein belong to their respective owners.
Please see credits for attibutions and further copyright information.

  Follow gcmap on Facebook Follow gcmap on Twitter Follow gcmap on Google+ GCmap on LinkedIn

hCard Microformat

Geo Microformat